createdAt,value
2018-08-18T00:00:56.644Z,20.64
2018-08-18T00:01:56.645Z,20.63
2018-08-18T00:02:56.639Z,20.63
2018-08-18T00:03:56.632Z,20.57
2018-08-18T00:04:56.640Z,20.66
2018-08-18T00:05:56.632Z,20.71
2018-08-18T00:06:56.629Z,20.72
2018-08-18T00:07:56.624Z,20.61
2018-08-18T00:08:56.626Z,20.68
2018-08-18T00:09:56.624Z,20.71
2018-08-18T00:10:56.621Z,20.64
2018-08-18T00:11:56.616Z,20.68
2018-08-18T00:12:56.617Z,20.54
2018-08-18T00:13:56.614Z,20.56
2018-08-18T00:14:56.605Z,20.63
2018-08-18T00:15:56.605Z,20.61
2018-08-18T00:16:56.599Z,20.72
2018-08-18T00:17:56.598Z,20.63
2018-08-18T00:18:56.605Z,20.63
2018-08-18T00:19:56.596Z,20.64
2018-08-18T00:20:56.588Z,20.71
2018-08-18T00:21:56.588Z,20.63
2018-08-18T00:22:56.591Z,20.76
2018-08-18T00:23:56.587Z,20.78
2018-08-18T00:24:56.580Z,20.72
2018-08-18T00:25:56.582Z,20.64
2018-08-18T00:26:56.576Z,20.68
2018-08-18T00:27:56.578Z,20.68
2018-08-18T00:28:56.567Z,20.64
2018-08-18T00:29:56.573Z,20.63
2018-08-18T00:30:56.569Z,20.60
2018-08-18T00:31:56.562Z,20.61
2018-08-18T00:32:56.562Z,20.66
2018-08-18T00:33:56.552Z,20.66
2018-08-18T00:34:56.551Z,20.68
2018-08-18T00:35:56.548Z,20.64
2018-08-18T00:36:56.545Z,20.56
2018-08-18T00:37:56.546Z,20.60
2018-08-18T00:38:56.540Z,20.63
2018-08-18T00:39:56.537Z,20.61
2018-08-18T00:40:56.538Z,20.57
2018-08-18T00:41:56.533Z,20.53
2018-08-18T00:42:56.530Z,20.53
2018-08-18T00:43:56.526Z,20.46
2018-08-18T00:44:56.530Z,20.53
2018-08-18T00:45:56.538Z,20.48
2018-08-18T00:46:56.528Z,20.53
2018-08-18T00:47:56.516Z,20.46
2018-08-18T00:48:56.519Z,20.51
2018-08-18T00:49:56.512Z,20.53
2018-08-18T00:50:56.507Z,20.48
2018-08-18T00:51:56.505Z,20.54
2018-08-18T00:52:56.504Z,20.57
2018-08-18T00:53:56.499Z,20.50
2018-08-18T00:54:56.498Z,20.51
2018-08-18T00:55:56.494Z,20.48
2018-08-18T00:56:56.492Z,20.46
2018-08-18T00:57:56.495Z,20.53
2018-08-18T00:58:56.491Z,20.48
2018-08-18T00:59:56.488Z,20.46
2018-08-18T01:00:56.482Z,20.46
2018-08-18T01:01:56.479Z,20.46
2018-08-18T01:02:56.483Z,20.51
2018-08-18T01:03:56.472Z,20.50
2018-08-18T01:04:56.474Z,20.54
2018-08-18T01:05:56.469Z,20.53
2018-08-18T01:06:56.468Z,20.51
2018-08-18T01:07:56.462Z,20.50
2018-08-18T01:08:56.464Z,20.54
2018-08-18T01:09:56.461Z,20.46
2018-08-18T01:10:56.595Z,20.48
2018-08-18T01:11:56.658Z,20.46
2018-08-18T01:12:56.526Z,20.51
2018-08-18T01:13:56.468Z,20.53
2018-08-18T01:14:56.572Z,20.51
2018-08-18T01:15:56.443Z,20.46
2018-08-18T01:16:56.446Z,20.60
2018-08-18T01:17:56.439Z,20.61
2018-08-18T01:18:56.433Z,20.68
2018-08-18T01:19:56.432Z,20.71
2018-08-18T01:20:56.430Z,20.71
2018-08-18T01:21:56.430Z,20.71
2018-08-18T01:22:56.423Z,20.76
2018-08-18T01:23:56.424Z,20.87
2018-08-18T01:24:56.415Z,20.88
2018-08-18T01:25:56.417Z,20.83
2018-08-18T01:26:56.411Z,20.93
2018-08-18T01:27:56.411Z,20.90
2018-08-18T01:28:56.411Z,20.87
2018-08-18T01:29:56.402Z,20.90
2018-08-18T01:30:56.401Z,20.91
2018-08-18T01:31:56.397Z,20.94
2018-08-18T01:32:56.395Z,20.94
2018-08-18T01:33:56.392Z,20.94
2018-08-18T01:34:56.392Z,21.03
2018-08-18T01:35:56.385Z,20.91
2018-08-18T01:36:56.383Z,20.91
2018-08-18T01:37:56.384Z,20.93
2018-08-18T01:38:56.379Z,20.96
2018-08-18T01:39:56.377Z,20.97
2018-08-18T01:40:56.381Z,20.97
2018-08-18T01:41:56.370Z,20.98
2018-08-18T01:42:56.372Z,20.85
2018-08-18T01:43:56.374Z,20.96
2018-08-18T01:44:56.362Z,20.91
2018-08-18T01:45:56.361Z,20.93
2018-08-18T01:46:56.357Z,20.91
2018-08-18T01:47:56.354Z,20.90
2018-08-18T01:48:56.352Z,20.94
2018-08-18T01:49:56.348Z,20.93
2018-08-18T01:50:56.347Z,20.94
2018-08-18T01:51:56.350Z,20.96
2018-08-18T01:52:56.352Z,20.96
2018-08-18T01:53:56.339Z,20.93
2018-08-18T01:54:56.341Z,20.93
2018-08-18T01:55:56.336Z,20.90
2018-08-18T01:56:56.336Z,20.90
2018-08-18T01:57:56.334Z,20.97
2018-08-18T01:58:56.326Z,20.97
2018-08-18T01:59:56.329Z,20.94
2018-08-18T02:00:56.323Z,20.93
2018-08-18T02:01:56.316Z,20.96
2018-08-18T02:02:56.319Z,20.91
2018-08-18T02:03:56.314Z,20.90
2018-08-18T02:04:56.306Z,20.91
2018-08-18T02:05:56.308Z,20.85
2018-08-18T02:06:56.301Z,20.93
2018-08-18T02:07:56.303Z,20.93
2018-08-18T02:08:56.296Z,20.87
2018-08-18T02:09:56.294Z,20.85
2018-08-18T02:10:56.293Z,20.76
2018-08-18T02:11:56.289Z,20.76
2018-08-18T02:12:56.292Z,20.73
2018-08-18T02:13:56.287Z,20.66
2018-08-18T02:14:56.283Z,20.64
2018-08-18T02:15:56.281Z,20.68
2018-08-18T02:16:56.277Z,20.68
2018-08-18T02:17:56.276Z,20.60
2018-08-18T02:18:56.272Z,20.63
2018-08-18T02:19:56.294Z,20.63
2018-08-18T02:20:56.261Z,20.64
2018-08-18T02:21:56.263Z,20.58
2018-08-18T02:22:56.256Z,20.66
2018-08-18T02:23:56.254Z,20.66
2018-08-18T02:24:56.249Z,20.68
2018-08-18T02:25:56.249Z,20.68
2018-08-18T02:26:56.248Z,20.73
2018-08-18T02:27:56.249Z,20.66
2018-08-18T02:28:56.245Z,20.66
2018-08-18T02:29:56.243Z,20.66
2018-08-18T02:30:56.240Z,20.73
2018-08-18T02:31:56.237Z,20.73
2018-08-18T02:32:56.228Z,20.76
2018-08-18T02:33:56.232Z,20.72
2018-08-18T02:34:56.229Z,20.58
2018-08-18T02:35:56.227Z,20.64
2018-08-18T02:36:56.216Z,20.66
2018-08-18T02:37:56.215Z,20.66
2018-08-18T02:38:56.217Z,20.64
2018-08-18T02:39:56.222Z,20.69
2018-08-18T02:40:56.210Z,20.66
2018-08-18T02:41:56.203Z,20.69
2018-08-18T02:42:56.203Z,20.53
2018-08-18T02:43:56.205Z,20.48
2018-08-18T02:44:56.243Z,20.48
2018-08-18T02:45:56.196Z,20.35
2018-08-18T02:46:56.256Z,20.44
2018-08-18T02:47:56.186Z,20.38
2018-08-18T02:48:56.189Z,20.34
2018-08-18T02:49:56.184Z,20.40
2018-08-18T02:50:56.176Z,20.44
2018-08-18T02:51:56.173Z,20.40
2018-08-18T02:52:56.173Z,20.33
2018-08-18T02:53:56.171Z,20.17
2018-08-18T02:54:56.162Z,20.16
2018-08-18T02:55:56.161Z,20.19
2018-08-18T02:56:56.161Z,20.19
2018-08-18T02:57:56.153Z,20.20
2018-08-18T02:58:56.154Z,20.15
2018-08-18T02:59:56.153Z,20.12
2018-08-18T03:00:56.147Z,20.13
2018-08-18T03:01:56.143Z,20.15
2018-08-18T03:02:56.138Z,20.22
2018-08-18T03:03:56.136Z,20.17
2018-08-18T03:04:56.132Z,20.27
2018-08-18T03:05:56.129Z,20.22
2018-08-18T03:06:56.127Z,20.33
2018-08-18T03:07:56.253Z,20.30
2018-08-18T03:08:56.120Z,20.35
2018-08-18T03:09:56.118Z,20.31
2018-08-18T03:10:56.112Z,20.33
2018-08-18T03:11:56.115Z,20.34
2018-08-18T03:12:56.109Z,20.30
2018-08-18T03:13:56.104Z,20.34
2018-08-18T03:14:56.111Z,20.27
2018-08-18T03:15:56.100Z,20.35
2018-08-18T03:16:56.103Z,20.31
2018-08-18T03:17:56.102Z,20.27
2018-08-18T03:18:56.088Z,20.31
2018-08-18T03:19:56.085Z,20.27
2018-08-18T03:20:56.080Z,20.27
2018-08-18T03:21:56.080Z,20.17
2018-08-18T03:22:56.077Z,20.22
2018-08-18T03:23:56.077Z,20.17
2018-08-18T03:24:56.066Z,20.12
2018-08-18T03:25:56.071Z,20.12
2018-08-18T03:26:56.065Z,20.10
2018-08-18T03:27:56.061Z,20.12
2018-08-18T03:28:56.144Z,20.05
2018-08-18T03:29:56.057Z,20.10
2018-08-18T03:30:56.055Z,20.16
2018-08-18T03:31:56.048Z,20.07
2018-08-18T03:32:56.041Z,20.19
2018-08-18T03:33:56.036Z,20.17
2018-08-18T03:34:56.037Z,20.16
2018-08-18T03:35:56.036Z,20.16
2018-08-18T03:36:56.035Z,20.22
2018-08-18T03:37:56.029Z,20.19
2018-08-18T03:38:56.023Z,20.25
2018-08-18T03:39:56.019Z,20.23
2018-08-18T03:40:56.021Z,20.27
2018-08-18T03:41:56.019Z,20.31
2018-08-18T03:42:56.013Z,20.35
2018-08-18T03:43:56.005Z,20.33
2018-08-18T03:44:56.005Z,20.31
2018-08-18T03:45:56.000Z,20.44
2018-08-18T03:46:55.997Z,20.42
2018-08-18T03:47:55.998Z,20.50
2018-08-18T03:48:55.995Z,20.44
2018-08-18T03:49:55.987Z,20.50
2018-08-18T03:50:55.988Z,20.46
2018-08-18T03:51:55.985Z,20.40
2018-08-18T03:52:55.981Z,20.37
2018-08-18T03:53:55.973Z,20.31
2018-08-18T03:54:55.970Z,20.37
2018-08-18T03:55:55.970Z,20.33
2018-08-18T03:56:55.964Z,20.38
2018-08-18T03:57:55.960Z,20.35
2018-08-18T03:58:55.956Z,20.35
2018-08-18T03:59:55.955Z,20.31
2018-08-18T04:00:55.956Z,20.26
2018-08-18T04:01:55.976Z,20.31
2018-08-18T04:02:55.943Z,20.35
2018-08-18T04:03:55.944Z,20.26
2018-08-18T04:04:55.943Z,20.26
2018-08-18T04:05:55.933Z,20.25
2018-08-18T04:06:55.941Z,20.16
2018-08-18T04:07:55.934Z,20.23
2018-08-18T04:08:55.925Z,20.16
2018-08-18T04:09:55.922Z,20.17
2018-08-18T04:10:55.916Z,20.16
2018-08-18T04:11:55.914Z,20.19
2018-08-18T04:12:55.912Z,20.19
2018-08-18T04:13:55.909Z,20.17
2018-08-18T04:14:55.906Z,20.16
2018-08-18T04:15:55.902Z,20.15
2018-08-18T04:16:55.898Z,20.16
2018-08-18T04:17:55.899Z,20.19
2018-08-18T04:18:55.942Z,20.20
2018-08-18T04:19:55.898Z,20.15
2018-08-18T04:20:55.887Z,20.15
2018-08-18T04:21:55.882Z,20.19
2018-08-18T04:22:55.876Z,20.12
2018-08-18T04:23:55.872Z,20.17
2018-08-18T04:24:55.875Z,20.19
2018-08-18T04:25:55.871Z,20.15
2018-08-18T04:26:55.869Z,20.17
2018-08-18T04:27:55.859Z,20.15
2018-08-18T04:28:55.855Z,20.17
2018-08-18T04:29:55.851Z,20.15
2018-08-18T04:30:55.855Z,20.15
2018-08-18T04:31:55.851Z,20.13
2018-08-18T04:32:55.844Z,20.19
2018-08-18T04:33:55.845Z,20.17
2018-08-18T04:34:55.839Z,20.22
2018-08-18T04:35:55.836Z,20.13
2018-08-18T04:36:55.828Z,20.20
2018-08-18T04:37:55.824Z,20.23
2018-08-18T04:38:55.823Z,20.30
2018-08-18T04:39:55.818Z,20.35
2018-08-18T04:40:55.819Z,20.34
2018-08-18T04:41:55.811Z,20.37
2018-08-18T04:42:55.809Z,20.41
2018-08-18T04:43:55.881Z,20.38
2018-08-18T04:44:55.820Z,20.41
2018-08-18T04:45:55.802Z,20.35
2018-08-18T04:46:55.799Z,20.33
2018-08-18T04:47:55.799Z,20.33
2018-08-18T04:48:55.789Z,20.30
2018-08-18T04:49:55.787Z,20.33
2018-08-18T04:50:55.787Z,20.34
2018-08-18T04:51:55.780Z,20.41
2018-08-18T04:52:55.777Z,20.40
2018-08-18T04:53:55.781Z,20.44
2018-08-18T04:54:55.769Z,20.46
2018-08-18T04:55:55.773Z,20.51
2018-08-18T04:56:55.939Z,20.41
2018-08-18T04:57:55.761Z,20.37
2018-08-18T04:58:55.762Z,20.27
2018-08-18T04:59:55.756Z,20.20
2018-08-18T05:00:55.757Z,20.02
2018-08-18T05:01:55.747Z,19.97
2018-08-18T05:02:55.744Z,20.04
2018-08-18T05:03:55.749Z,19.98
2018-08-18T05:04:55.744Z,20.01
2018-08-18T05:05:55.732Z,20.13
2018-08-18T05:06:55.731Z,20.01
2018-08-18T05:07:55.734Z,20.02
2018-08-18T05:08:55.778Z,20.01
2018-08-18T05:09:55.724Z,20.17
2018-08-18T05:10:55.716Z,20.15
2018-08-18T05:11:55.715Z,20.10
2018-08-18T05:12:55.719Z,20.02
2018-08-18T05:13:55.707Z,19.94
2018-08-18T05:14:55.709Z,19.90
2018-08-18T05:15:55.708Z,20.02
2018-08-18T05:16:55.700Z,20.01
2018-08-18T05:17:55.691Z,20.04
2018-08-18T05:18:55.718Z,19.94
2018-08-18T05:19:55.687Z,20.10
2018-08-18T05:20:55.680Z,20.04
2018-08-18T05:21:55.678Z,20.15
2018-08-18T05:22:55.675Z,20.08
2018-08-18T05:23:55.669Z,20.07
2018-08-18T05:24:55.664Z,20.19
2018-08-18T05:25:55.663Z,20.08
2018-08-18T05:26:55.659Z,20.19
2018-08-18T05:27:55.658Z,20.17
2018-08-18T05:28:55.654Z,20.20
2018-08-18T05:29:55.651Z,20.19
2018-08-18T05:30:55.651Z,20.15
2018-08-18T05:31:55.654Z,20.16
2018-08-18T05:32:55.643Z,20.23
2018-08-18T05:33:55.640Z,20.25
2018-08-18T05:34:55.635Z,20.26
2018-08-18T05:35:55.628Z,20.31
2018-08-18T05:36:55.626Z,20.35
2018-08-18T05:37:55.622Z,20.48
2018-08-18T05:38:55.620Z,20.48
2018-08-18T05:39:55.613Z,20.50
2018-08-18T05:40:55.610Z,20.42
2018-08-18T05:41:55.605Z,20.17
2018-08-18T05:42:55.603Z,20.16
2018-08-18T05:43:55.598Z,20.01
2018-08-18T05:44:55.594Z,19.98
2018-08-18T05:45:55.593Z,19.90
2018-08-18T05:46:55.596Z,20.10
2018-08-18T05:47:55.589Z,19.98
2018-08-18T05:48:55.584Z,20.01
2018-08-18T05:49:55.582Z,20.13
2018-08-18T05:50:55.572Z,20.16
2018-08-18T05:51:55.570Z,20.25
2018-08-18T05:52:55.566Z,20.12
2018-08-18T05:53:55.568Z,20.08
2018-08-18T05:54:55.560Z,20.13
2018-08-18T05:55:55.559Z,20.10
2018-08-18T05:56:55.558Z,20.12
2018-08-18T05:57:55.554Z,20.35
2018-08-18T05:58:55.645Z,20.35
2018-08-18T05:59:55.545Z,20.33
2018-08-18T06:00:55.542Z,20.35
2018-08-18T06:01:55.538Z,20.35
2018-08-18T06:02:55.531Z,20.44
2018-08-18T06:03:55.526Z,20.42
2018-08-18T06:04:55.529Z,20.44
2018-08-18T06:05:55.525Z,20.53
2018-08-18T06:06:55.518Z,20.50
2018-08-18T06:07:55.520Z,20.53
2018-08-18T06:08:55.512Z,20.56
2018-08-18T06:09:55.511Z,20.64
2018-08-18T06:10:55.509Z,20.64
2018-08-18T06:11:55.528Z,20.66
2018-08-18T06:12:55.506Z,20.81
2018-08-18T06:13:55.498Z,20.75
2018-08-18T06:14:55.489Z,20.82
2018-08-18T06:15:55.488Z,20.87
2018-08-18T06:16:55.485Z,20.93
2018-08-18T06:17:55.485Z,20.94
2018-08-18T06:18:55.482Z,20.91
2018-08-18T06:19:55.479Z,20.94
2018-08-18T06:20:55.471Z,21.00
2018-08-18T06:21:55.474Z,21.06
2018-08-18T06:22:55.464Z,21.08
2018-08-18T06:23:55.461Z,21.05
2018-08-18T06:24:55.462Z,21.13
2018-08-18T06:25:55.457Z,21.05
2018-08-18T06:26:55.451Z,21.00
2018-08-18T06:27:55.456Z,21.00
2018-08-18T06:28:55.450Z,20.97
2018-08-18T06:29:55.444Z,21.15
2018-08-18T06:30:55.444Z,21.06
2018-08-18T06:31:55.441Z,21.12
2018-08-18T06:32:55.434Z,21.18
2018-08-18T06:33:55.435Z,21.24
2018-08-18T06:34:55.588Z,21.31
2018-08-18T06:35:55.495Z,21.33
2018-08-18T06:36:55.423Z,21.34
2018-08-18T06:37:55.424Z,21.33
2018-08-18T06:38:55.423Z,21.31
2018-08-18T06:39:55.422Z,21.18
2018-08-18T06:40:55.424Z,21.24
2018-08-18T06:41:55.468Z,21.26
2018-08-18T06:42:55.410Z,21.21
2018-08-18T06:43:55.405Z,21.21
2018-08-18T06:44:55.404Z,21.31
2018-08-18T06:45:55.398Z,21.38
2018-08-18T06:46:55.396Z,21.49
2018-08-18T06:47:55.397Z,21.49
2018-08-18T06:48:55.388Z,21.55
2018-08-18T06:49:55.389Z,21.55
2018-08-18T06:50:55.383Z,21.53
2018-08-18T06:51:55.382Z,21.66
2018-08-18T06:52:55.380Z,21.67
2018-08-18T06:53:55.375Z,21.75
2018-08-18T06:54:55.480Z,21.71
2018-08-18T06:55:55.373Z,21.93
2018-08-18T06:56:55.405Z,21.96
2018-08-18T06:57:55.416Z,21.85
2018-08-18T06:58:55.367Z,21.82
2018-08-18T06:59:55.362Z,21.74
2018-08-18T07:00:55.361Z,21.81
2018-08-18T07:01:55.363Z,21.74
2018-08-18T07:02:55.355Z,21.79
2018-08-18T07:03:55.359Z,21.74
2018-08-18T07:04:55.348Z,21.86
2018-08-18T07:05:55.408Z,21.85
2018-08-18T07:06:55.344Z,22.01
2018-08-18T07:07:55.346Z,21.94
2018-08-18T07:08:55.338Z,21.98
2018-08-18T07:09:55.340Z,22.01
2018-08-18T07:10:55.335Z,22.09
2018-08-18T07:11:55.334Z,22.14
2018-08-18T07:12:55.329Z,22.11
2018-08-18T07:13:55.333Z,22.21
2018-08-18T07:14:55.324Z,22.33
2018-08-18T07:15:55.324Z,22.41
2018-08-18T07:16:55.320Z,22.48
2018-08-18T07:17:55.317Z,22.57
2018-08-18T07:18:55.316Z,22.63
2018-08-18T07:19:55.317Z,22.74
2018-08-18T07:20:55.312Z,22.82
2018-08-18T07:21:55.316Z,22.84
2018-08-18T07:22:55.308Z,22.88
2018-08-18T07:23:55.306Z,22.89
2018-08-18T07:24:55.302Z,23.11
2018-08-18T07:25:55.302Z,23.11
2018-08-18T07:26:55.307Z,23.23
2018-08-18T07:27:55.307Z,23.21
2018-08-18T07:28:55.406Z,23.32
2018-08-18T07:29:55.299Z,23.50
2018-08-18T07:30:55.298Z,23.56
2018-08-18T07:31:55.291Z,23.64
2018-08-18T07:32:55.292Z,23.72
2018-08-18T07:33:55.287Z,23.78
2018-08-18T07:34:55.286Z,23.71
2018-08-18T07:35:55.284Z,23.67
2018-08-18T07:36:55.284Z,23.69
2018-08-18T07:37:55.282Z,23.75
2018-08-18T07:38:55.297Z,23.77
2018-08-18T07:39:55.288Z,23.79
2018-08-18T07:40:55.279Z,23.86
2018-08-18T07:41:55.278Z,23.75
2018-08-18T07:42:55.279Z,23.89
2018-08-18T07:43:55.280Z,23.82
2018-08-18T07:44:55.272Z,23.79
2018-08-18T07:45:55.276Z,23.64
2018-08-18T07:46:55.273Z,23.60
2018-08-18T07:47:55.288Z,23.59
2018-08-18T07:48:55.267Z,23.52
2018-08-18T07:49:55.269Z,23.47
2018-08-18T07:50:55.268Z,23.47
2018-08-18T07:51:55.267Z,23.53
2018-08-18T07:52:55.262Z,23.47
2018-08-18T07:53:55.269Z,23.62
2018-08-18T07:54:55.261Z,23.53
2018-08-18T07:55:55.259Z,23.56
2018-08-18T07:56:55.257Z,23.42
2018-08-18T07:57:55.255Z,23.50
2018-08-18T07:58:55.265Z,23.63
2018-08-18T07:59:55.267Z,23.52
2018-08-18T08:00:55.253Z,23.60
2018-08-18T08:01:55.253Z,23.72
2018-08-18T08:02:55.249Z,23.77
2018-08-18T08:03:55.253Z,23.78
2018-08-18T08:04:55.296Z,23.92
2018-08-18T08:05:55.248Z,23.96
2018-08-18T08:06:55.246Z,24.09
2018-08-18T08:07:55.251Z,24.14
2018-08-18T08:08:55.241Z,24.14
2018-08-18T08:09:55.243Z,24.14
2018-08-18T08:10:55.249Z,24.14
2018-08-18T08:11:55.239Z,24.14
2018-08-18T08:12:55.297Z,24.08
2018-08-18T08:13:55.235Z,24.09
2018-08-18T08:14:55.247Z,24.05
2018-08-18T08:15:55.238Z,24.04
2018-08-18T08:16:55.232Z,24.04
2018-08-18T08:17:55.246Z,24.06
2018-08-18T08:18:55.233Z,24.14
2018-08-18T08:19:55.238Z,24.08
2018-08-18T08:20:55.230Z,24.15
2018-08-18T08:21:55.237Z,24.18
2018-08-18T08:22:55.237Z,24.34
2018-08-18T08:23:55.231Z,24.27
2018-08-18T08:24:55.228Z,24.34
2018-08-18T08:25:55.229Z,24.33
2018-08-18T08:26:55.225Z,24.31
2018-08-18T08:27:55.228Z,24.39
2018-08-18T08:28:55.223Z,24.42
2018-08-18T08:29:55.227Z,24.44
2018-08-18T08:30:55.224Z,24.49
2018-08-18T08:31:55.226Z,24.59
2018-08-18T08:32:55.226Z,24.60
2018-08-18T08:33:55.224Z,24.71
2018-08-18T08:34:55.224Z,24.68
2018-08-18T08:35:55.226Z,24.71
2018-08-18T08:36:55.323Z,24.82
2018-08-18T08:37:55.218Z,24.89
2018-08-18T08:38:55.223Z,24.92
2018-08-18T08:39:55.223Z,24.93
2018-08-18T08:40:55.217Z,25.07
2018-08-18T08:41:55.218Z,25.22
2018-08-18T08:42:55.273Z,25.34
2018-08-18T08:43:55.215Z,25.24
2018-08-18T08:44:55.216Z,25.39
2018-08-18T08:45:55.216Z,25.53
2018-08-18T08:46:55.214Z,25.59
2018-08-18T08:47:55.213Z,25.63
2018-08-18T08:48:55.224Z,25.57
2018-08-18T08:49:55.256Z,25.63
2018-08-18T08:50:55.219Z,25.69
2018-08-18T08:51:55.224Z,25.74
2018-08-18T08:52:55.213Z,25.78
2018-08-18T08:53:55.221Z,25.83
2018-08-18T08:54:55.217Z,25.74
2018-08-18T08:55:55.212Z,25.85
2018-08-18T08:56:55.211Z,25.96
2018-08-18T08:57:55.212Z,25.97
2018-08-18T08:58:55.308Z,26.00
2018-08-18T08:59:55.212Z,25.93
2018-08-18T09:00:55.211Z,25.86
2018-08-18T09:01:55.211Z,25.98
2018-08-18T09:02:55.215Z,26.08
2018-08-18T09:03:55.213Z,26.12
2018-08-18T09:04:55.215Z,26.12
2018-08-18T09:05:55.224Z,26.01
2018-08-18T09:06:55.214Z,26.08
2018-08-18T09:07:55.220Z,25.98
2018-08-18T09:08:55.215Z,26.11
2018-08-18T09:09:55.222Z,26.08
2018-08-18T09:10:55.218Z,26.16
2018-08-18T09:11:55.219Z,26.31
2018-08-18T09:12:55.219Z,26.34
2018-08-18T09:13:55.219Z,26.46
2018-08-18T09:14:55.221Z,26.49
2018-08-18T09:15:55.222Z,26.59
2018-08-18T09:16:55.225Z,26.64
2018-08-18T09:17:55.219Z,26.65
2018-08-18T09:18:55.220Z,26.59
2018-08-18T09:19:55.224Z,26.73
2018-08-18T09:20:55.220Z,26.69
2018-08-18T09:21:55.225Z,26.59
2018-08-18T09:22:55.224Z,26.51
2018-08-18T09:23:55.224Z,26.38
2018-08-18T09:24:55.229Z,26.29
2018-08-18T09:25:55.259Z,26.24
2018-08-18T09:26:55.226Z,26.17
2018-08-18T09:27:55.229Z,26.03
2018-08-18T09:28:55.230Z,25.94
2018-08-18T09:29:55.231Z,26.06
2018-08-18T09:30:55.234Z,26.04
2018-08-18T09:31:55.230Z,26.12
2018-08-18T09:32:55.233Z,26.21
2018-08-18T09:33:55.237Z,26.16
2018-08-18T09:34:55.235Z,26.28
2018-08-18T09:35:55.234Z,26.34
2018-08-18T09:36:55.237Z,26.46
2018-08-18T09:37:55.233Z,26.38
2018-08-18T09:38:55.239Z,26.51
2018-08-18T09:39:55.235Z,26.51
2018-08-18T09:40:55.243Z,26.56
2018-08-18T09:41:55.235Z,26.60
2018-08-18T09:42:55.244Z,26.69
2018-08-18T09:43:55.245Z,26.75
2018-08-18T09:44:55.240Z,26.83
2018-08-18T09:45:55.246Z,26.76
2018-08-18T09:46:55.245Z,26.79
2018-08-18T09:47:55.240Z,26.59
2018-08-18T09:48:55.247Z,26.51
2018-08-18T09:49:55.246Z,26.49
2018-08-18T09:50:55.251Z,26.54
2018-08-18T09:51:55.247Z,26.56
2018-08-18T09:52:55.252Z,26.23
2018-08-18T09:53:55.253Z,25.78
2018-08-18T09:54:55.255Z,25.46
2018-08-18T09:55:55.254Z,25.42
2018-08-18T09:56:55.249Z,25.31
2018-08-18T09:57:55.255Z,25.42
2018-08-18T09:58:55.256Z,25.53
2018-08-18T09:59:55.256Z,25.53
2018-08-18T10:00:55.258Z,25.35
2018-08-18T10:01:55.254Z,25.23
2018-08-18T10:02:55.254Z,25.17
2018-08-18T10:03:55.255Z,25.38
2018-08-18T10:04:55.256Z,25.61
2018-08-18T10:05:55.254Z,25.56
2018-08-18T10:06:55.257Z,25.39
2018-08-18T10:07:55.260Z,25.51
2018-08-18T10:08:55.260Z,25.69
2018-08-18T10:09:55.261Z,25.94
2018-08-18T10:10:55.258Z,26.06
2018-08-18T10:11:55.261Z,26.35
2018-08-18T10:12:55.259Z,26.59
2018-08-18T10:13:55.258Z,26.83
2018-08-18T10:14:55.265Z,26.98
2018-08-18T10:15:55.265Z,27.08
2018-08-18T10:16:55.264Z,27.21
2018-08-18T10:17:55.261Z,27.40
2018-08-18T10:18:55.269Z,27.59
2018-08-18T10:19:55.267Z,27.68
2018-08-18T10:20:55.268Z,27.68
2018-08-18T10:21:55.268Z,27.87
2018-08-18T10:22:55.269Z,27.98
2018-08-18T10:23:55.275Z,27.95
2018-08-18T10:24:55.277Z,28.02
2018-08-18T10:25:55.274Z,28.27
2018-08-18T10:26:55.276Z,28.24
2018-08-18T10:27:55.280Z,28.27
2018-08-18T10:28:55.279Z,28.40
2018-08-18T10:29:55.277Z,28.39
2018-08-18T10:30:55.286Z,28.21
2018-08-18T10:31:55.287Z,28.28
2018-08-18T10:32:55.283Z,28.32
2018-08-18T10:33:55.283Z,28.36
2018-08-18T10:34:55.294Z,28.27
2018-08-18T10:35:55.291Z,28.17
2018-08-18T10:36:55.290Z,28.25
2018-08-18T10:37:55.290Z,28.06
2018-08-18T10:38:55.295Z,28.13
2018-08-18T10:39:55.302Z,28.11
2018-08-18T10:40:55.299Z,28.15
2018-08-18T10:41:55.327Z,28.06
2018-08-18T10:42:55.307Z,28.06
2018-08-18T10:43:55.306Z,28.03
2018-08-18T10:44:55.305Z,27.96
2018-08-18T10:45:55.308Z,28.09
2018-08-18T10:46:55.316Z,28.11
2018-08-18T10:47:55.311Z,28.18
2018-08-18T10:48:55.318Z,28.18
2018-08-18T10:49:55.323Z,28.25
2018-08-18T10:50:55.320Z,28.32
2018-08-18T10:51:55.321Z,28.25
2018-08-18T10:52:55.320Z,28.38
2018-08-18T10:53:55.321Z,28.39
2018-08-18T10:54:55.333Z,28.27
2018-08-18T10:55:55.334Z,28.27
2018-08-18T10:56:55.333Z,28.23
2018-08-18T10:57:55.337Z,28.28
2018-08-18T10:58:55.340Z,28.30
2018-08-18T10:59:55.340Z,28.30
2018-08-18T11:00:55.342Z,28.43
2018-08-18T11:01:55.342Z,28.39
2018-08-18T11:02:55.342Z,28.39
2018-08-18T11:03:55.469Z,28.40
2018-08-18T11:04:55.348Z,28.42
2018-08-18T11:05:55.353Z,28.58
2018-08-18T11:06:55.349Z,28.48
2018-08-18T11:07:55.353Z,28.55
2018-08-18T11:08:55.355Z,28.55
2018-08-18T11:09:55.361Z,28.55
2018-08-18T11:10:55.360Z,28.67
2018-08-18T11:11:55.381Z,28.69
2018-08-18T11:12:55.365Z,28.77
2018-08-18T11:13:55.381Z,28.72
2018-08-18T11:14:55.369Z,28.76
2018-08-18T11:15:55.377Z,28.74
2018-08-18T11:16:55.380Z,28.82
2018-08-18T11:17:55.375Z,28.80
2018-08-18T11:18:55.384Z,28.91
2018-08-18T11:19:55.384Z,28.82
2018-08-18T11:20:55.384Z,28.83
2018-08-18T11:21:55.491Z,28.87
2018-08-18T11:22:55.388Z,28.72
2018-08-18T11:23:55.394Z,28.73
2018-08-18T11:24:55.402Z,28.76
2018-08-18T11:25:55.394Z,28.67
2018-08-18T11:26:55.403Z,28.67
2018-08-18T11:27:55.404Z,28.70
2018-08-18T11:28:55.565Z,28.76
2018-08-18T11:29:55.408Z,28.79
2018-08-18T11:30:55.409Z,28.79
2018-08-18T11:31:55.416Z,28.72
2018-08-18T11:32:55.413Z,28.76
2018-08-18T11:33:55.421Z,28.74
2018-08-18T11:34:55.422Z,28.74
2018-08-18T11:35:55.421Z,28.64
2018-08-18T11:36:55.426Z,28.67
2018-08-18T11:37:55.431Z,28.76
2018-08-18T11:38:55.428Z,28.79
2018-08-18T11:39:55.432Z,28.91
2018-08-18T11:40:55.435Z,28.95
2018-08-18T11:41:55.439Z,28.98
2018-08-18T11:42:55.441Z,29.08
2018-08-18T11:43:55.449Z,29.03
2018-08-18T11:44:55.443Z,29.10
2018-08-18T11:45:55.451Z,29.14
2018-08-18T11:46:55.452Z,29.27
2018-08-18T11:47:55.457Z,29.23
2018-08-18T11:48:55.455Z,29.30
2018-08-18T11:49:55.463Z,29.45
2018-08-18T11:50:55.463Z,29.36
2018-08-18T11:51:55.466Z,29.30
2018-08-18T11:52:55.465Z,29.36
2018-08-18T11:53:55.470Z,29.17
2018-08-18T11:54:55.477Z,28.97
2018-08-18T11:55:55.474Z,29.07
2018-08-18T11:56:55.478Z,29.21
2018-08-18T11:57:55.479Z,29.20
2018-08-18T11:58:55.485Z,29.27
2018-08-18T11:59:55.485Z,29.29
2018-08-18T12:00:55.508Z,29.41
2018-08-18T12:01:55.510Z,29.41
2018-08-18T12:02:55.493Z,29.32
2018-08-18T12:03:55.499Z,29.42
2018-08-18T12:04:55.498Z,29.25
2018-08-18T12:05:55.502Z,29.30
2018-08-18T12:06:55.506Z,29.32
2018-08-18T12:07:55.509Z,29.23
2018-08-18T12:08:55.509Z,29.27
2018-08-18T12:09:55.512Z,29.35
2018-08-18T12:10:55.695Z,29.26
2018-08-18T12:11:55.522Z,29.42
2018-08-18T12:12:55.521Z,29.48
2018-08-18T12:13:55.525Z,29.52
2018-08-18T12:14:55.528Z,29.55
2018-08-18T12:15:55.530Z,29.58
2018-08-18T12:16:55.539Z,29.60
2018-08-18T12:17:55.535Z,29.64
2018-08-18T12:18:55.540Z,29.69
2018-08-18T12:19:55.543Z,29.74
2018-08-18T12:20:55.545Z,29.45
2018-08-18T12:21:55.552Z,29.10
2018-08-18T12:22:55.554Z,29.12
2018-08-18T12:23:55.558Z,29.26
2018-08-18T12:24:55.563Z,29.32
2018-08-18T12:25:55.561Z,29.47
2018-08-18T12:26:55.565Z,29.51
2018-08-18T12:27:55.571Z,29.49
2018-08-18T12:28:55.567Z,29.64
2018-08-18T12:29:55.665Z,29.74
2018-08-18T12:30:55.575Z,29.85
2018-08-18T12:31:55.580Z,29.99
2018-08-18T12:32:55.583Z,30.01
2018-08-18T12:33:55.588Z,30.16
2018-08-18T12:34:55.587Z,30.23
2018-08-18T12:35:55.593Z,30.32
2018-08-18T12:36:55.773Z,30.45
2018-08-18T12:37:55.600Z,30.56
2018-08-18T12:38:55.606Z,30.54
2018-08-18T12:39:55.608Z,30.76
2018-08-18T12:40:55.611Z,30.78
2018-08-18T12:41:55.612Z,30.61
2018-08-18T12:42:55.621Z,30.56
2018-08-18T12:43:55.619Z,30.64
2018-08-18T12:44:55.627Z,30.76
2018-08-18T12:45:55.625Z,30.90
2018-08-18T12:46:55.635Z,30.97
2018-08-18T12:47:55.640Z,30.93
2018-08-18T12:48:55.638Z,30.90
2018-08-18T12:49:55.699Z,30.83
2018-08-18T12:50:55.652Z,30.86
2018-08-18T12:51:55.652Z,30.90
2018-08-18T12:52:55.657Z,30.18